sensor_id;sensor_type;location;lat;lon;timestamp;temperature;humidity
67249;SHT31;63247;54.300;18.592;2023-04-24T00:02:22;11.29;99.99
67249;SHT31;63247;54.300;18.592;2023-04-24T00:04:47;11.17;99.99
67249;SHT31;63247;54.300;18.592;2023-04-24T00:07:14;11.12;99.99
67249;SHT31;63247;54.300;18.592;2023-04-24T00:09:42;11.07;99.99
67249;SHT31;63247;54.300;18.592;2023-04-24T00:12:07;11.01;99.99
67249;SHT31;63247;54.300;18.592;2023-04-24T00:14:33;10.94;99.99
67249;SHT31;63247;54.300;18.592;2023-04-24T00:17:00;10.91;99.99
67249;SHT31;63247;54.300;18.592;2023-04-24T00:19:26;10.89;99.99
67249;SHT31;63247;54.300;18.592;2023-04-24T00:21:52;10.91;99.99
67249;SHT31;63247;54.300;18.592;2023-04-24T00:24:17;10.89;99.99
67249;SHT31;63247;54.300;18.592;2023-04-24T00:26:44;10.90;99.99
67249;SHT31;63247;54.300;18.592;2023-04-24T00:29:09;10.94;99.99
67249;SHT31;63247;54.300;18.592;2023-04-24T00:31:35;10.98;99.99
67249;SHT31;63247;54.300;18.592;2023-04-24T00:34:03;11.03;99.99
67249;SHT31;63247;54.300;18.592;2023-04-24T00:36:29;11.06;99.99
67249;SHT31;63247;54.300;18.592;2023-04-24T00:38:56;10.97;99.99
67249;SHT31;63247;54.300;18.592;2023-04-24T00:41:21;10.93;99.99
67249;SHT31;63247;54.300;18.592;2023-04-24T00:43:47;10.96;99.99
67249;SHT31;63247;54.300;18.592;2023-04-24T00:46:14;10.91;99.99
67249;SHT31;63247;54.300;18.592;2023-04-24T00:48:40;10.87;99.99
67249;SHT31;63247;54.300;18.592;2023-04-24T00:51:05;10.89;99.99
67249;SHT31;63247;54.300;18.592;2023-04-24T00:53:31;10.85;99.99
67249;SHT31;63247;54.300;18.592;2023-04-24T00:55:58;10.71;99.99
67249;SHT31;63247;54.300;18.592;2023-04-24T00:58:24;10.48;99.99
67249;SHT31;63247;54.300;18.592;2023-04-24T01:00:51;10.45;99.99
67249;SHT31;63247;54.300;18.592;2023-04-24T01:03:20;10.36;99.99
67249;SHT31;63247;54.300;18.592;2023-04-24T01:05:47;10.38;99.99
67249;SHT31;63247;54.300;18.592;2023-04-24T01:08:13;10.31;99.99
67249;SHT31;63247;54.300;18.592;2023-04-24T01:10:41;10.32;99.99
67249;SHT31;63247;54.300;18.592;2023-04-24T01:13:07;10.21;99.99
67249;SHT31;63247;54.300;18.592;2023-04-24T01:15:33;10.22;99.99
67249;SHT31;63247;54.300;18.592;2023-04-24T01:17:59;10.28;99.99
67249;SHT31;63247;54.300;18.592;2023-04-24T01:20:25;10.28;99.99
67249;SHT31;63247;54.300;18.592;2023-04-24T01:22:51;10.21;99.99
67249;SHT31;63247;54.300;18.592;2023-04-24T01:25:18;10.15;99.99
67249;SHT31;63247;54.300;18.592;2023-04-24T01:27:43;10.18;99.99
67249;SHT31;63247;54.300;18.592;2023-04-24T01:30:09;10.19;99.99
67249;SHT31;63247;54.300;18.592;2023-04-24T01:32:36;10.19;99.99
67249;SHT31;63247;54.300;18.592;2023-04-24T01:35:02;10.15;99.99
67249;SHT31;63247;54.300;18.592;2023-04-24T01:37:27;10.25;99.99
67249;SHT31;63247;54.300;18.592;2023-04-24T01:39:53;10.28;99.99
67249;SHT31;63247;54.300;18.592;2023-04-24T01:42:19;10.22;99.99
67249;SHT31;63247;54.300;18.592;2023-04-24T01:44:44;10.33;99.99
67249;SHT31;63247;54.300;18.592;2023-04-24T01:47:10;10.29;99.99
67249;SHT31;63247;54.300;18.592;2023-04-24T01:49:38;10.31;99.99
67249;SHT31;63247;54.300;18.592;2023-04-24T01:52:03;10.23;99.99
67249;SHT31;63247;54.300;18.592;2023-04-24T01:54:29;10.16;99.99
67249;SHT31;63247;54.300;18.592;2023-04-24T01:56:54;10.22;99.99
67249;SHT31;63247;54.300;18.592;2023-04-24T01:59:20;10.21;99.99
67249;SHT31;63247;54.300;18.592;2023-04-24T02:01:46;10.13;99.99
67249;SHT31;63247;54.300;18.592;2023-04-24T02:04:12;10.11;99.99
67249;SHT31;63247;54.300;18.592;2023-04-24T02:06:37;10.12;99.99
67249;SHT31;63247;54.300;18.592;2023-04-24T02:09:03;10.08;99.99
67249;SHT31;63247;54.300;18.592;2023-04-24T02:11:28;10.05;99.99
67249;SHT31;63247;54.300;18.592;2023-04-24T02:13:54;10.09;99.99
67249;SHT31;63247;54.300;18.592;2023-04-24T02:16:19;10.05;99.99
67249;SHT31;63247;54.300;18.592;2023-04-24T02:18:45;10.04;99.99
67249;SHT31;63247;54.300;18.592;2023-04-24T02:21:10;10.01;99.99
67249;SHT31;63247;54.300;18.592;2023-04-24T02:23:36;10.05;99.99
67249;SHT31;63247;54.300;18.592;2023-04-24T02:26:01;9.97;99.99
67249;SHT31;63247;54.300;18.592;2023-04-24T02:28:27;9.99;99.99
67249;SHT31;63247;54.300;18.592;2023-04-24T02:30:52;9.98;99.99
67249;SHT31;63247;54.300;18.592;2023-04-24T02:33:18;9.97;99.99
67249;SHT31;63247;54.300;18.592;2023-04-24T02:35:43;9.99;99.99
67249;SHT31;63247;54.300;18.592;2023-04-24T02:38:09;9.94;99.99
67249;SHT31;63247;54.300;18.592;2023-04-24T02:40:34;10.02;99.99
67249;SHT31;63247;54.300;18.592;2023-04-24T02:42:59;9.95;99.99
67249;SHT31;63247;54.300;18.592;2023-04-24T02:45:25;9.87;99.99
67249;SHT31;63247;54.300;18.592;2023-04-24T02:47:50;9.80;99.99
67249;SHT31;63247;54.300;18.592;2023-04-24T02:50:16;9.81;99.99
67249;SHT31;63247;54.300;18.592;2023-04-24T02:52:41;9.77;99.99
67249;SHT31;63247;54.300;18.592;2023-04-24T02:55:07;9.74;99.99
67249;SHT31;63247;54.300;18.592;2023-04-24T02:57:33;9.71;99.99
67249;SHT31;63247;54.300;18.592;2023-04-24T02:59:59;9.65;99.99
67249;SHT31;63247;54.300;18.592;2023-04-24T03:02:24;9.64;99.99
67249;SHT31;63247;54.300;18.592;2023-04-24T03:04:50;9.64;99.99
67249;SHT31;63247;54.300;18.592;2023-04-24T03:07:15;9.65;99.99
67249;SHT31;63247;54.300;18.592;2023-04-24T03:09:41;9.69;99.99
67249;SHT31;63247;54.300;18.592;2023-04-24T03:12:06;9.63;99.99
67249;SHT31;63247;54.300;18.592;2023-04-24T03:14:32;9.64;99.99
67249;SHT31;63247;54.300;18.592;2023-04-24T03:16:57;9.65;99.99
67249;SHT31;63247;54.300;18.592;2023-04-24T03:19:23;9.53;99.99
67249;SHT31;63247;54.300;18.592;2023-04-24T03:21:49;9.57;99.99
67249;SHT31;63247;54.300;18.592;2023-04-24T03:24:14;9.48;99.99
67249;SHT31;63247;54.300;18.592;2023-04-24T03:26:39;9.53;99.99
67249;SHT31;63247;54.300;18.592;2023-04-24T03:29:05;9.44;99.99
67249;SHT31;63247;54.300;18.592;2023-04-24T03:31:30;9.50;99.99
67249;SHT31;63247;54.300;18.592;2023-04-24T03:33:56;9.43;99.99
67249;SHT31;63247;54.300;18.592;2023-04-24T03:36:21;9.42;99.99
67249;SHT31;63247;54.300;18.592;2023-04-24T03:38:46;9.51;99.99
67249;SHT31;63247;54.300;18.592;2023-04-24T03:41:12;9.37;99.99
67249;SHT31;63247;54.300;18.592;2023-04-24T03:43:37;9.47;99.99
67249;SHT31;63247;54.300;18.592;2023-04-24T03:46:03;9.51;99.99
67249;SHT31;63247;54.300;18.592;2023-04-24T03:48:29;9.57;99.99
67249;SHT31;63247;54.300;18.592;2023-04-24T03:50:55;9.51;99.99
67249;SHT31;63247;54.300;18.592;2023-04-24T03:53:20;9.33;99.99
67249;SHT31;63247;54.300;18.592;2023-04-24T03:55:46;9.26;99.99
67249;SHT31;63247;54.300;18.592;2023-04-24T03:58:11;9.22;99.99
67249;SHT31;63247;54.300;18.592;2023-04-24T04:00:38;9.27;99.99
67249;SHT31;63247;54.300;18.592;2023-04-24T04:03:05;9.25;99.99
67249;SHT31;63247;54.300;18.592;2023-04-24T04:05:31;9.16;99.99
67249;SHT31;63247;54.300;18.592;2023-04-24T04:07:56;9.18;99.99
67249;SHT31;63247;54.300;18.592;2023-04-24T04:10:22;9.20;99.99
67249;SHT31;63247;54.300;18.592;2023-04-24T04:12:47;9.14;99.99
67249;SHT31;63247;54.300;18.592;2023-04-24T04:15:12;9.19;99.99
67249;SHT31;63247;54.300;18.592;2023-04-24T04:17:38;9.20;99.99
67249;SHT31;63247;54.300;18.592;2023-04-24T04:20:04;9.27;99.99
67249;SHT31;63247;54.300;18.592;2023-04-24T04:22:34;9.30;99.99
67249;SHT31;63247;54.300;18.592;2023-04-24T04:25:00;9.15;99.99
67249;SHT31;63247;54.300;18.592;2023-04-24T04:27:26;9.14;99.99
67249;SHT31;63247;54.300;18.592;2023-04-24T04:29:52;9.26;99.99
67249;SHT31;63247;54.300;18.592;2023-04-24T04:32:17;9.27;99.99
67249;SHT31;63247;54.300;18.592;2023-04-24T04:34:43;9.48;99.99
67249;SHT31;63247;54.300;18.592;2023-04-24T04:37:10;9.64;99.99
67249;SHT31;63247;54.300;18.592;2023-04-24T04:39:37;9.70;99.99
67249;SHT31;63247;54.300;18.592;2023-04-24T04:42:03;9.70;99.99
67249;SHT31;63247;54.300;18.592;2023-04-24T04:44:29;9.64;99.99
67249;SHT31;63247;54.300;18.592;2023-04-24T04:46:56;9.81;99.99
67249;SHT31;63247;54.300;18.592;2023-04-24T04:49:22;9.85;99.99
67249;SHT31;63247;54.300;18.592;2023-04-24T04:51:48;10.05;99.99
67249;SHT31;63247;54.300;18.592;2023-04-24T04:54:14;10.05;99.99
67249;SHT31;63247;54.300;18.592;2023-04-24T04:56:40;10.09;99.99
67249;SHT31;63247;54.300;18.592;2023-04-24T04:59:06;10.08;99.99
67249;SHT31;63247;54.300;18.592;2023-04-24T05:01:31;10.22;99.99
67249;SHT31;63247;54.300;18.592;2023-04-24T05:03:57;10.35;99.99
67249;SHT31;63247;54.300;18.592;2023-04-24T05:06:22;10.45;99.99
67249;SHT31;63247;54.300;18.592;2023-04-24T05:08:48;10.49;99.99
67249;SHT31;63247;54.300;18.592;2023-04-24T05:11:14;10.46;99.91
67249;SHT31;63247;54.300;18.592;2023-04-24T05:13:40;10.28;99.99
67249;SHT31;63247;54.300;18.592;2023-04-24T05:16:05;10.22;99.99
67249;SHT31;63247;54.300;18.592;2023-04-24T05:18:31;10.43;99.84
67249;SHT31;63247;54.300;18.592;2023-04-24T05:20:57;10.29;99.35
67249;SHT31;63247;54.300;18.592;2023-04-24T05:23:22;10.25;98.98
67249;SHT31;63247;54.300;18.592;2023-04-24T05:25:48;10.06;99.87
67249;SHT31;63247;54.300;18.592;2023-04-24T05:28:13;10.08;99.99
67249;SHT31;63247;54.300;18.592;2023-04-24T05:30:38;10.13;99.99
67249;SHT31;63247;54.300;18.592;2023-04-24T05:33:04;10.11;99.69
67249;SHT31;63247;54.300;18.592;2023-04-24T05:35:30;10.18;99.73
67249;SHT31;63247;54.300;18.592;2023-04-24T05:37:55;10.11;99.99
67249;SHT31;63247;54.300;18.592;2023-04-24T05:40:21;10.16;99.99
67249;SHT31;63247;54.300;18.592;2023-04-24T05:42:46;10.15;99.99
67249;SHT31;63247;54.300;18.592;2023-04-24T05:45:11;10.15;99.19
67249;SHT31;63247;54.300;18.592;2023-04-24T05:47:42;10.02;99.30
67249;SHT31;63247;54.300;18.592;2023-04-24T05:50:09;10.08;99.00
67249;SHT31;63247;54.300;18.592;2023-04-24T05:52:34;10.16;98.96
67249;SHT31;63247;54.300;18.592;2023-04-24T05:55:00;10.28;98.30
67249;SHT31;63247;54.300;18.592;2023-04-24T05:57:25;10.19;98.11
67249;SHT31;63247;54.300;18.592;2023-04-24T05:59:51;10.05;98.73
67249;SHT31;63247;54.300;18.592;2023-04-24T06:02:16;10.13;98.67
67249;SHT31;63247;54.300;18.592;2023-04-24T06:04:42;10.29;98.84
67249;SHT31;63247;54.300;18.592;2023-04-24T06:07:10;10.60;98.00
67249;SHT31;63247;54.300;18.592;2023-04-24T06:09:35;10.74;97.30
67249;SHT31;63247;54.300;18.592;2023-04-24T06:12:01;10.83;96.90
67249;SHT31;63247;54.300;18.592;2023-04-24T06:14:27;10.49;97.30
67249;SHT31;63247;54.300;18.592;2023-04-24T06:16:53;10.55;97.25
67249;SHT31;63247;54.300;18.592;2023-04-24T06:19:18;10.60;97.74
67249;SHT31;63247;54.300;18.592;2023-04-24T06:21:44;10.52;97.86
67249;SHT31;63247;54.300;18.592;2023-04-24T06:24:09;10.43;98.32
67249;SHT31;63247;54.300;18.592;2023-04-24T06:26:35;10.43;98.53
67249;SHT31;63247;54.300;18.592;2023-04-24T06:29:00;10.29;98.40
67249;SHT31;63247;54.300;18.592;2023-04-24T06:31:26;10.28;98.53
67249;SHT31;63247;54.300;18.592;2023-04-24T06:33:51;10.35;98.31
67249;SHT31;63247;54.300;18.592;2023-04-24T06:36:16;10.35;98.26
67249;SHT31;63247;54.300;18.592;2023-04-24T06:38:42;10.52;99.03
67249;SHT31;63247;54.300;18.592;2023-04-24T06:41:07;10.38;98.80
67249;SHT31;63247;54.300;18.592;2023-04-24T06:43:33;10.42;98.90
67249;SHT31;63247;54.300;18.592;2023-04-24T06:45:59;10.50;99.19
67249;SHT31;63247;54.300;18.592;2023-04-24T06:48:25;10.35;99.79
67249;SHT31;63247;54.300;18.592;2023-04-24T06:50:51;10.33;99.99
67249;SHT31;63247;54.300;18.592;2023-04-24T06:53:16;10.32;99.99
67249;SHT31;63247;54.300;18.592;2023-04-24T06:55:43;10.42;99.99
67249;SHT31;63247;54.300;18.592;2023-04-24T06:58:11;10.36;99.99
67249;SHT31;63247;54.300;18.592;2023-04-24T07:00:36;10.18;99.99
67249;SHT31;63247;54.300;18.592;2023-04-24T07:03:02;10.29;99.99
67249;SHT31;63247;54.300;18.592;2023-04-24T07:05:28;10.33;99.99
67249;SHT31;63247;54.300;18.592;2023-04-24T07:07:54;10.15;99.99
67249;SHT31;63247;54.300;18.592;2023-04-24T07:10:19;10.31;99.99
67249;SHT31;63247;54.300;18.592;2023-04-24T07:12:45;10.28;99.99
67249;SHT31;63247;54.300;18.592;2023-04-24T07:15:11;10.26;99.99
67249;SHT31;63247;54.300;18.592;2023-04-24T07:17:37;10.11;99.99
67249;SHT31;63247;54.300;18.592;2023-04-24T07:20:04;10.05;99.99
67249;SHT31;63247;54.300;18.592;2023-04-24T07:22:29;10.21;99.99
67249;SHT31;63247;54.300;18.592;2023-04-24T07:24:55;10.35;99.99
67249;SHT31;63247;54.300;18.592;2023-04-24T07:27:20;10.38;99.99
67249;SHT31;63247;54.300;18.592;2023-04-24T07:29:46;10.56;99.99
67249;SHT31;63247;54.300;18.592;2023-04-24T07:32:11;10.73;99.99
67249;SHT31;63247;54.300;18.592;2023-04-24T07:34:37;10.45;99.99
67249;SHT31;63247;54.300;18.592;2023-04-24T07:37:02;10.39;99.99
67249;SHT31;63247;54.300;18.592;2023-04-24T07:39:28;10.63;99.99
67249;SHT31;63247;54.300;18.592;2023-04-24T07:41:54;10.84;99.99
67249;SHT31;63247;54.300;18.592;2023-04-24T07:44:19;10.73;99.99
67249;SHT31;63247;54.300;18.592;2023-04-24T07:46:45;11.17;99.54
67249;SHT31;63247;54.300;18.592;2023-04-24T07:49:10;11.29;99.36
67249;SHT31;63247;54.300;18.592;2023-04-24T07:51:36;11.43;99.73
67249;SHT31;63247;54.300;18.592;2023-04-24T07:54:06;11.35;99.99
67249;SHT31;63247;54.300;18.592;2023-04-24T07:56:32;11.34;99.91
67249;SHT31;63247;54.300;18.592;2023-04-24T07:58:58;11.42;99.88
67249;SHT31;63247;54.300;18.592;2023-04-24T08:01:24;11.34;99.99
67249;SHT31;63247;54.300;18.592;2023-04-24T08:03:49;11.34;99.99
67249;SHT31;63247;54.300;18.592;2023-04-24T08:06:14;11.63;99.99
67249;SHT31;63247;54.300;18.592;2023-04-24T08:08:40;11.55;99.99
67249;SHT31;63247;54.300;18.592;2023-04-24T08:11:05;11.83;99.80
67249;SHT31;63247;54.300;18.592;2023-04-24T08:13:31;11.89;99.83
67249;SHT31;63247;54.300;18.592;2023-04-24T08:15:56;11.76;99.31
67249;SHT31;63247;54.300;18.592;2023-04-24T08:18:22;11.82;99.94
67249;SHT31;63247;54.300;18.592;2023-04-24T08:20:48;12.07;99.58
67249;SHT31;63247;54.300;18.592;2023-04-24T08:23:13;12.07;99.00
67249;SHT31;63247;54.300;18.592;2023-04-24T08:25:39;12.42;98.30
67249;SHT31;63247;54.300;18.592;2023-04-24T08:28:05;12.69;97.54
67249;SHT31;63247;54.300;18.592;2023-04-24T08:30:31;13.68;95.27
67249;SHT31;63247;54.300;18.592;2023-04-24T08:32:57;14.38;92.38
67249;SHT31;63247;54.300;18.592;2023-04-24T08:35:23;14.47;92.60
67249;SHT31;63247;54.300;18.592;2023-04-24T08:37:48;14.80;90.59
67249;SHT31;63247;54.300;18.592;2023-04-24T08:40:15;14.57;90.39
67249;SHT31;63247;54.300;18.592;2023-04-24T08:42:44;14.32;91.79
67249;SHT31;63247;54.300;18.592;2023-04-24T08:45:12;14.27;93.37
67249;SHT31;63247;54.300;18.592;2023-04-24T08:47:39;16.32;87.81
67249;SHT31;63247;54.300;18.592;2023-04-24T08:50:05;16.94;84.62
67249;SHT31;63247;54.300;18.592;2023-04-24T08:52:32;16.28;86.32
67249;SHT31;63247;54.300;18.592;2023-04-24T08:54:59;15.63;87.35
67249;SHT31;63247;54.300;18.592;2023-04-24T08:57:25;14.92;90.64
67249;SHT31;63247;54.300;18.592;2023-04-24T08:59:53;14.54;91.57
67249;SHT31;63247;54.300;18.592;2023-04-24T09:02:18;14.12;93.14
67249;SHT31;63247;54.300;18.592;2023-04-24T09:04:45;14.30;93.05
67249;SHT31;63247;54.300;18.592;2023-04-24T09:07:12;14.10;93.78
67249;SHT31;63247;54.300;18.592;2023-04-24T09:09:40;14.20;92.76
67249;SHT31;63247;54.300;18.592;2023-04-24T09:12:07;14.04;94.06
67249;SHT31;63247;54.300;18.592;2023-04-24T09:14:34;14.20;93.64
67249;SHT31;63247;54.300;18.592;2023-04-24T09:17:01;14.43;92.62
67249;SHT31;63247;54.300;18.592;2023-04-24T09:19:27;14.37;93.61
67249;SHT31;63247;54.300;18.592;2023-04-24T09:21:52;14.06;94.52
67249;SHT31;63247;54.300;18.592;2023-04-24T09:24:20;13.77;95.01
67249;SHT31;63247;54.300;18.592;2023-04-24T09:26:48;13.60;95.49
67249;SHT31;63247;54.300;18.592;2023-04-24T09:29:16;13.99;94.96
67249;SHT31;63247;54.300;18.592;2023-04-24T09:31:42;13.98;94.30
67249;SHT31;63247;54.300;18.592;2023-04-24T09:34:07;14.02;94.34
67249;SHT31;63247;54.300;18.592;2023-04-24T09:36:43;13.77;95.43
67249;SHT31;63247;54.300;18.592;2023-04-24T09:39:12;14.19;94.02
67249;SHT31;63247;54.300;18.592;2023-04-24T09:41:52;13.85;94.43
67249;SHT31;63247;54.300;18.592;2023-04-24T09:44:19;14.29;92.97
67249;SHT31;63247;54.300;18.592;2023-04-24T09:46:55;14.40;92.53
67249;SHT31;63247;54.300;18.592;2023-04-24T09:49:28;14.70;92.74
67249;SHT31;63247;54.300;18.592;2023-04-24T09:52:07;14.91;92.07
67249;SHT31;63247;54.300;18.592;2023-04-24T09:54:33;14.77;92.03
67249;SHT31;63247;54.300;18.592;2023-04-24T09:56:59;14.94;91.61
67249;SHT31;63247;54.300;18.592;2023-04-24T09:59:25;14.81;91.58
67249;SHT31;63247;54.300;18.592;2023-04-24T10:01:51;15.44;90.68
67249;SHT31;63247;54.300;18.592;2023-04-24T10:04:27;16.04;88.74
67249;SHT31;63247;54.300;18.592;2023-04-24T10:06:55;15.90;88.82
67249;SHT31;63247;54.300;18.592;2023-04-24T10:09:22;16.25;87.66
67249;SHT31;63247;54.300;18.592;2023-04-24T10:11:53;16.18;87.20
67249;SHT31;63247;54.300;18.592;2023-04-24T10:14:21;16.52;87.19
67249;SHT31;63247;54.300;18.592;2023-04-24T10:16:48;17.45;84.45
67249;SHT31;63247;54.300;18.592;2023-04-24T10:19:15;17.83;82.23
67249;SHT31;63247;54.300;18.592;2023-04-24T10:21:42;17.85;83.01
67249;SHT31;63247;54.300;18.592;2023-04-24T10:24:15;17.71;83.71
67249;SHT31;63247;54.300;18.592;2023-04-24T10:26:41;18.10;81.89
67249;SHT31;63247;54.300;18.592;2023-04-24T10:29:07;18.03;82.93
67249;SHT31;63247;54.300;18.592;2023-04-24T10:31:37;18.30;81.75
67249;SHT31;63247;54.300;18.592;2023-04-24T10:34:08;17.51;83.18
67249;SHT31;63247;54.300;18.592;2023-04-24T10:36:34;17.08;83.38
67249;SHT31;63247;54.300;18.592;2023-04-24T10:39:02;17.30;83.85
67249;SHT31;63247;54.300;18.592;2023-04-24T10:41:30;17.51;83.50
67249;SHT31;63247;54.300;18.592;2023-04-24T10:44:14;17.72;83.09
67249;SHT31;63247;54.300;18.592;2023-04-24T10:46:45;17.87;83.10
67249;SHT31;63247;54.300;18.592;2023-04-24T10:49:11;17.54;83.48
67249;SHT31;63247;54.300;18.592;2023-04-24T10:52:03;17.36;84.26
67249;SHT31;63247;54.300;18.592;2023-04-24T11:00:09;16.97;84.94
67249;SHT31;63247;54.300;18.592;2023-04-24T11:02:36;17.42;84.12
67249;SHT31;63247;54.300;18.592;2023-04-24T11:05:03;17.59;84.12
67249;SHT31;63247;54.300;18.592;2023-04-24T11:07:29;17.36;83.51
67249;SHT31;63247;54.300;18.592;2023-04-24T11:10:01;17.52;84.10
67249;SHT31;63247;54.300;18.592;2023-04-24T11:12:26;17.83;82.69
67249;SHT31;63247;54.300;18.592;2023-04-24T11:17:37;18.21;81.33
67249;SHT31;63247;54.300;18.592;2023-04-24T11:20:10;18.76;80.76
67249;SHT31;63247;54.300;18.592;2023-04-24T11:22:38;19.00;81.05
67249;SHT31;63247;54.300;18.592;2023-04-24T11:25:05;18.57;80.32
67249;SHT31;63247;54.300;18.592;2023-04-24T11:27:39;18.64;80.39
67249;SHT31;63247;54.300;18.592;2023-04-24T11:30:05;18.51;80.23
67249;SHT31;63247;54.300;18.592;2023-04-24T11:35:22;18.64;79.88
67249;SHT31;63247;54.300;18.592;2023-04-24T11:37:52;19.16;79.18
67249;SHT31;63247;54.300;18.592;2023-04-24T11:40:19;19.31;72.68
67249;SHT31;63247;54.300;18.592;2023-04-24T11:42:54;19.51;73.26
67249;SHT31;63247;54.300;18.592;2023-04-24T11:45:26;20.08;71.61
67249;SHT31;63247;54.300;18.592;2023-04-24T11:47:52;19.60;69.84
67249;SHT31;63247;54.300;18.592;2023-04-24T11:50:22;19.49;70.72
67249;SHT31;63247;54.300;18.592;2023-04-24T11:52:49;19.58;70.30
67249;SHT31;63247;54.300;18.592;2023-04-24T11:57:43;19.30;68.90
67249;SHT31;63247;54.300;18.592;2023-04-24T12:00:16;19.43;69.55
67249;SHT31;63247;54.300;18.592;2023-04-24T12:02:42;19.22;68.82
67249;SHT31;63247;54.300;18.592;2023-04-24T12:05:08;19.30;68.59
67249;SHT31;63247;54.300;18.592;2023-04-24T12:07:40;18.98;69.32
67249;SHT31;63247;54.300;18.592;2023-04-24T12:10:08;18.79;69.15
67249;SHT31;63247;54.300;18.592;2023-04-24T12:12:34;18.68;69.08
67249;SHT31;63247;54.300;18.592;2023-04-24T12:15:01;18.54;69.48
67249;SHT31;63247;54.300;18.592;2023-04-24T12:17:31;18.44;70.54
67249;SHT31;63247;54.300;18.592;2023-04-24T12:19:58;18.51;70.61
67249;SHT31;63247;54.300;18.592;2023-04-24T12:22:24;18.58;69.81
67249;SHT31;63247;54.300;18.592;2023-04-24T12:25:03;18.84;69.60
67249;SHT31;63247;54.300;18.592;2023-04-24T12:27:33;18.92;68.85
67249;SHT31;63247;54.300;18.592;2023-04-24T12:30:00;19.19;66.96
67249;SHT31;63247;54.300;18.592;2023-04-24T12:32:26;19.16;66.87
67249;SHT31;63247;54.300;18.592;2023-04-24T12:34:53;18.99;65.93
67249;SHT31;63247;54.300;18.592;2023-04-24T12:37:19;18.88;66.07
67249;SHT31;63247;54.300;18.592;2023-04-24T12:40:09;18.71;66.68
67249;SHT31;63247;54.300;18.592;2023-04-24T12:42:35;18.78;68.09
67249;SHT31;63247;54.300;18.592;2023-04-24T12:45:04;18.82;68.46
67249;SHT31;63247;54.300;18.592;2023-04-24T12:47:30;18.85;68.45
67249;SHT31;63247;54.300;18.592;2023-04-24T12:49:56;18.64;68.53
67249;SHT31;63247;54.300;18.592;2023-04-24T12:52:23;18.44;68.00
67249;SHT31;63247;54.300;18.592;2023-04-24T12:54:57;18.23;68.12
67249;SHT31;63247;54.300;18.592;2023-04-24T12:57:23;18.50;68.64
67249;SHT31;63247;54.300;18.592;2023-04-24T12:59:49;18.67;68.61
67249;SHT31;63247;54.300;18.592;2023-04-24T13:02:14;18.61;67.52
67249;SHT31;63247;54.300;18.592;2023-04-24T13:04:44;18.65;68.26
67249;SHT31;63247;54.300;18.592;2023-04-24T13:07:10;18.71;67.92
67249;SHT31;63247;54.300;18.592;2023-04-24T13:09:35;18.72;68.09
67249;SHT31;63247;54.300;18.592;2023-04-24T13:12:01;18.65;68.69
67249;SHT31;63247;54.300;18.592;2023-04-24T13:14:26;18.62;68.34
67249;SHT31;63247;54.300;18.592;2023-04-24T13:16:52;18.60;67.79
67249;SHT31;63247;54.300;18.592;2023-04-24T13:19:18;18.67;66.60
67249;SHT31;63247;54.300;18.592;2023-04-24T13:21:43;18.79;66.87
67249;SHT31;63247;54.300;18.592;2023-04-24T13:24:09;19.08;67.50
67249;SHT31;63247;54.300;18.592;2023-04-24T13:26:34;19.26;66.13
67249;SHT31;63247;54.300;18.592;2023-04-24T13:29:00;19.73;66.23
67249;SHT31;63247;54.300;18.592;2023-04-24T13:31:25;19.75;62.30
67249;SHT31;63247;54.300;18.592;2023-04-24T13:33:51;19.89;63.61
67249;SHT31;63247;54.300;18.592;2023-04-24T13:36:16;19.91;61.61
67249;SHT31;63247;54.300;18.592;2023-04-24T13:38:43;19.63;60.93
67249;SHT31;63247;54.300;18.592;2023-04-24T13:41:09;19.71;62.02
67249;SHT31;63247;54.300;18.592;2023-04-24T13:43:35;19.89;61.87
67249;SHT31;63247;54.300;18.592;2023-04-24T13:46:00;19.78;62.25
67249;SHT31;63247;54.300;18.592;2023-04-24T13:48:28;19.57;61.73
67249;SHT31;63247;54.300;18.592;2023-04-24T13:50:53;19.34;62.91
67249;SHT31;63247;54.300;18.592;2023-04-24T13:53:19;19.40;63.92
67249;SHT31;63247;54.300;18.592;2023-04-24T13:55:44;19.29;64.17
67249;SHT31;63247;54.300;18.592;2023-04-24T13:58:10;19.10;64.20
67249;SHT31;63247;54.300;18.592;2023-04-24T14:00:35;19.22;64.69
67249;SHT31;63247;54.300;18.592;2023-04-24T14:03:01;19.45;64.82
67249;SHT31;63247;54.300;18.592;2023-04-24T14:05:26;19.58;64.65
67249;SHT31;63247;54.300;18.592;2023-04-24T14:07:52;19.77;65.63
67249;SHT31;63247;54.300;18.592;2023-04-24T14:10:17;19.95;65.16
67249;SHT31;63247;54.300;18.592;2023-04-24T14:12:42;19.95;65.15
67249;SHT31;63247;54.300;18.592;2023-04-24T14:15:08;19.95;64.59
67249;SHT31;63247;54.300;18.592;2023-04-24T14:17:34;19.82;65.03
67249;SHT31;63247;54.300;18.592;2023-04-24T14:19:59;19.64;65.66
67249;SHT31;63247;54.300;18.592;2023-04-24T14:22:25;19.60;65.28
67249;SHT31;63247;54.300;18.592;2023-04-24T14:24:51;19.77;65.92
67249;SHT31;63247;54.300;18.592;2023-04-24T14:27:16;19.74;65.77
67249;SHT31;63247;54.300;18.592;2023-04-24T14:29:42;19.94;65.64
67249;SHT31;63247;54.300;18.592;2023-04-24T14:32:07;20.02;65.76
67249;SHT31;63247;54.300;18.592;2023-04-24T14:34:34;20.04;65.67
67249;SHT31;63247;54.300;18.592;2023-04-24T14:37:00;20.01;66.57
67249;SHT31;63247;54.300;18.592;2023-04-24T14:39:25;19.91;66.40
67249;SHT31;63247;54.300;18.592;2023-04-24T14:41:51;19.89;65.92
67249;SHT31;63247;54.300;18.592;2023-04-24T14:44:16;19.82;65.02
67249;SHT31;63247;54.300;18.592;2023-04-24T14:46:42;19.71;66.02
67249;SHT31;63247;54.300;18.592;2023-04-24T14:49:08;19.73;66.19
67249;SHT31;63247;54.300;18.592;2023-04-24T14:51:35;19.78;66.34
67249;SHT31;63247;54.300;18.592;2023-04-24T14:54:01;19.70;66.85
67249;SHT31;63247;54.300;18.592;2023-04-24T14:56:26;19.79;67.38
67249;SHT31;63247;54.300;18.592;2023-04-24T14:58:52;19.91;67.68
67249;SHT31;63247;54.300;18.592;2023-04-24T15:01:18;19.71;68.14
67249;SHT31;63247;54.300;18.592;2023-04-24T15:03:43;19.29;69.39
67249;SHT31;63247;54.300;18.592;2023-04-24T15:06:09;18.98;70.56
67249;SHT31;63247;54.300;18.592;2023-04-24T15:08:34;18.73;71.07
67249;SHT31;63247;54.300;18.592;2023-04-24T15:11:00;18.61;71.38
67249;SHT31;63247;54.300;18.592;2023-04-24T15:13:25;18.48;71.41
67249;SHT31;63247;54.300;18.592;2023-04-24T15:15:50;18.37;72.09
67249;SHT31;63247;54.300;18.592;2023-04-24T15:18:16;18.31;72.46
67249;SHT31;63247;54.300;18.592;2023-04-24T15:20:41;18.31;72.93
67249;SHT31;63247;54.300;18.592;2023-04-24T15:23:10;18.33;72.06
67249;SHT31;63247;54.300;18.592;2023-04-24T15:25:36;18.29;72.43
67249;SHT31;63247;54.300;18.592;2023-04-24T15:28:02;18.27;72.95